Aviation Digital Data Service (ADDS)

Output produced by METARs form (0328 UTC 18 June 2019)
found at http://www.aviationweather.gov/metar/data/
 
METAR text: KONT 180253Z 24010KT 10SM FEW020 SCT250 21/16 A2988 RMK AO2 SLP108 T02110156 53007
Conditions at: KONT (ONTARIO , CA, US) observed 0253 UTC 18 June 2019
Temperature: 21.1°C (70°F)
Dewpoint: 15.6°C (60°F) [RH = 71%]
Pressure (altimeter): 29.88 inches Hg (1011.9 mb)
[Sea-level pressure: 1010.8 mb]
Winds: from the WSW (240 degrees) at 12 MPH (10 knots; 5.1 m/s)
Visibility: 10 or more miles (16+ km)
Ceiling: at least 12,000 feet AGL
Clouds: few clouds at 2000 feet AGL
scattered clouds at 25000 feet AGL
Weather: no significant weather observed at this time

METAR text: KONT 180153Z 24012KT 10SM FEW020 SCT250 23/16 A2987 RMK AO2 SLP102 T02280156
Conditions at: KONT (ONTARIO , CA, US) observed 0153 UTC 18 June 2019
Temperature: 22.8°C (73°F)
Dewpoint: 15.6°C (60°F) [RH = 64%]
Pressure (altimeter): 29.87 inches Hg (1011.6 mb)
[Sea-level pressure: 1010.2 mb]
Winds: from the WSW (240 degrees) at 14 MPH (12 knots; 6.2 m/s)
Visibility: 10 or more miles (16+ km)
Ceiling: at least 12,000 feet AGL
Clouds: few clouds at 2000 feet AGL
scattered clouds at 25000 feet AGL
Weather: no significant weather observed at this time

METAR text: KONT 180053Z 26014G19KT 10SM FEW025 SCT250 24/16 A2986 RMK AO2 SLP098 T02440156
Conditions at: KONT (ONTARIO , CA, US) observed 0053 UTC 18 June 2019
Temperature: 24.4°C (76°F)
Dewpoint: 15.6°C (60°F) [RH = 58%]
Pressure (altimeter): 29.86 inches Hg (1011.3 mb)
[Sea-level pressure: 1009.8 mb]
Winds: from the W (260 degrees) at 16 MPH (14 knots; 7.2 m/s)
gusting to 22 MPH (19 knots; 9.8 m/s)
Visibility: 10 or more miles (16+ km)
Ceiling: at least 12,000 feet AGL
Clouds: few clouds at 2500 feet AGL
scattered clouds at 25000 feet AGL
Weather: no significant weather observed at this time

METAR text: KONT 172353Z 24014G22KT 10SM FEW030 FEW060 BKN250 26/15 A2986 RMK AO2 SLP099 T02560150 10272 20211 58009
Conditions at: KONT (ONTARIO , CA, US) observed 2353 UTC 17 June 2019
Temperature: 25.6°C (78°F)
Dewpoint: 15.0°C (59°F) [RH = 52%]
Pressure (altimeter): 29.86 inches Hg (1011.3 mb)
[Sea-level pressure: 1009.9 mb]
Winds: from the WSW (240 degrees) at 16 MPH (14 knots; 7.2 m/s)
gusting to 25 MPH (22 knots; 11.3 m/s)
Visibility: 10 or more miles (16+ km)
Ceiling: 25000 feet AGL
Clouds: few clouds at 3000 feet AGL
few clouds at 6000 feet AGL
broken clouds at 25000 feet AGL
Weather: no significant weather observed at this time

METAR text: KONT 172253Z 26015G20KT 8SM FEW028 FEW060 BKN250 27/16 A2987 RMK AO2 SLP101 HAZY T02670156
Conditions at: KONT (ONTARIO , CA, US) observed 2253 UTC 17 June 2019
Temperature: 26.7°C (80°F)
Dewpoint: 15.6°C (60°F) [RH = 51%]
Pressure (altimeter): 29.87 inches Hg (1011.6 mb)
[Sea-level pressure: 1010.1 mb]
Winds: from the W (260 degrees) at 17 MPH (15 knots; 7.7 m/s)
gusting to 23 MPH (20 knots; 10.3 m/s)
Visibility: 8 miles (13 km)
Ceiling: 25000 feet AGL
Clouds: few clouds at 2800 feet AGL
few clouds at 6000 feet AGL
broken clouds at 25000 feet AGL
Weather: no significant weather observed at this time

METAR text: KONT 172153Z 27012KT 8SM FEW028 FEW060 BKN250 27/16 A2988 RMK AO2 SLP104 HAZY T02670156
Conditions at: KONT (ONTARIO , CA, US) observed 2153 UTC 17 June 2019
Temperature: 26.7°C (80°F)
Dewpoint: 15.6°C (60°F) [RH = 51%]
Pressure (altimeter): 29.88 inches Hg (1011.9 mb)
[Sea-level pressure: 1010.4 mb]
Winds: from the W (270 degrees) at 14 MPH (12 knots; 6.2 m/s)
Visibility: 8 miles (13 km)
Ceiling: 25000 feet AGL
Clouds: few clouds at 2800 feet AGL
few clouds at 6000 feet AGL
broken clouds at 25000 feet AGL
Weather: no significant weather observed at this time

METAR text: KONT 172053Z 25008KT 230V300 10SM SCT250 26/16 A2989 RMK AO2 SLP107 T02610156 58006
Conditions at: KONT (ONTARIO , CA, US) observed 2053 UTC 17 June 2019
Temperature: 26.1°C (79°F)
Dewpoint: 15.6°C (60°F) [RH = 52%]
Pressure (altimeter): 29.89 inches Hg (1012.3 mb)
[Sea-level pressure: 1010.7 mb]
Winds: from the WSW (250 degrees) at 9 MPH (8 knots; 4.1 m/s)
Visibility: 10 or more miles (16+ km)
Ceiling: at least 12,000 feet AGL
Clouds: scattered clouds at 25000 feet AGL
Weather: no significant weather observed at this time

METAR text: KONT 171953Z 21005KT 9SM FEW028 SCT250 24/15 A2990 RMK AO2 SLP112 T02440150
Conditions at: KONT (ONTARIO , CA, US) observed 1953 UTC 17 June 2019
Temperature: 24.4°C (76°F)
Dewpoint: 15.0°C (59°F) [RH = 56%]
Pressure (altimeter): 29.90 inches Hg (1012.6 mb)
[Sea-level pressure: 1011.2 mb]
Winds: from the SSW (210 degrees) at 6 MPH (5 knots; 2.6 m/s)
Visibility: 9 miles (14 km)
Ceiling: at least 12,000 feet AGL
Clouds: few clouds at 2800 feet AGL
scattered clouds at 25000 feet AGL
Weather: no significant weather observed at this time

METAR text: KONT 171940Z 19005KT 9SM SCT025 SCT250 25/15 A2990 RMK AO2 T02500150
Conditions at: KONT (ONTARIO , CA, US) observed 1940 UTC 17 June 2019
Temperature: 25.0°C (77°F)
Dewpoint: 15.0°C (59°F) [RH = 54%]
Pressure (altimeter): 29.90 inches Hg (1012.6 mb)
Winds: from the S (190 degrees) at 6 MPH (5 knots; 2.6 m/s)
Visibility: 9 miles (14 km)
Ceiling: at least 12,000 feet AGL
Clouds: scattered clouds at 2500 feet AGL
scattered clouds at 25000 feet AGL
Weather: no significant weather observed at this time

METAR text: KONT 171853Z VRB04KT 9SM OVC021 23/16 A2991 RMK AO2 SLP116 T02280161
Conditions at: KONT (ONTARIO , CA, US) observed 1853 UTC 17 June 2019
Temperature: 22.8°C (73°F)
Dewpoint: 16.1°C (61°F) [RH = 66%]
Pressure (altimeter): 29.91 inches Hg (1013.0 mb)
[Sea-level pressure: 1011.6 mb]
Winds: variable direction winds at 5 MPH (4 knots; 2.1 m/s)
Visibility: 9 miles (14 km)
Ceiling: 2100 feet AGL
Clouds: overcast cloud deck at 2100 feet AGL
Weather: no significant weather observed at this time

METAR text: KONT 171753Z 22004KT 9SM OVC020 22/16 A2991 RMK AO2 SLP116 60000 T02170161 10217 20189 51006
Conditions at: KONT (ONTARIO , CA, US) observed 1753 UTC 17 June 2019
Temperature: 21.7°C (71°F)
Dewpoint: 16.1°C (61°F) [RH = 70%]
Pressure (altimeter): 29.91 inches Hg (1013.0 mb)
[Sea-level pressure: 1011.6 mb]
Winds: from the SW (220 degrees) at 5 MPH (4 knots; 2.1 m/s)
Visibility: 9 miles (14 km)
Ceiling: 2000 feet AGL
Clouds: overcast cloud deck at 2000 feet AGL
Weather: no significant weather observed at this time

METAR text: KONT 171653Z 00000KT 10SM OVC018 20/16 A2990 RMK AO2 SLP116 T02000161
Conditions at: KONT (ONTARIO , CA, US) observed 1653 UTC 17 June 2019
Temperature: 20.0°C (68°F)
Dewpoint: 16.1°C (61°F) [RH = 78%]
Pressure (altimeter): 29.90 inches Hg (1012.6 mb)
[Sea-level pressure: 1011.6 mb]
Winds: calm
Visibility: 10 or more miles (16+ km)
Ceiling: 1800 feet AGL
Clouds: overcast cloud deck at 1800 feet AGL
Weather: no significant weather observed at this time

METAR text: KONT 171553Z 27004KT 10SM OVC018 20/16 A2990 RMK AO2 DZE12 SLP115 P0000 T02000161
Conditions at: KONT (ONTARIO , CA, US) observed 1553 UTC 17 June 2019
Temperature: 20.0°C (68°F)
Dewpoint: 16.1°C (61°F) [RH = 78%]
Pressure (altimeter): 29.90 inches Hg (1012.6 mb)
[Sea-level pressure: 1011.5 mb]
Winds: from the W (270 degrees) at 5 MPH (4 knots; 2.1 m/s)
Visibility: 10 or more miles (16+ km)
Ceiling: 1800 feet AGL
Clouds: overcast cloud deck at 1800 feet AGL
Weather: no significant weather observed at this time

METAR text: KONT 171525Z 00000KT 10SM SCT014 OVC019 20/16 A2990 RMK AO2 DZE12 P0000 T02000161
Conditions at: KONT (ONTARIO , CA, US) observed 1525 UTC 17 June 2019
Temperature: 20.0°C (68°F)
Dewpoint: 16.1°C (61°F) [RH = 78%]
Pressure (altimeter): 29.90 inches Hg (1012.6 mb)
Winds: calm
Visibility: 10 or more miles (16+ km)
Ceiling: 1900 feet AGL
Clouds: scattered clouds at 1400 feet AGL
overcast cloud deck at 1900 feet AGL
Weather: no significant weather observed at this time

METAR text: KONT 171453Z COR 16004KT 9SM -DZ OVC013 19/16 A2989 RMK AO2 RAB47E53DZB53 SLP110 P0000 60000 T01940161 51010
Conditions at: KONT (ONTARIO , CA, US) observed 1453 UTC 17 June 2019
Temperature: 19.4°C (67°F)
Dewpoint: 16.1°C (61°F) [RH = 81%]
Pressure (altimeter): 29.89 inches Hg (1012.3 mb)
[Sea-level pressure: 1011.0 mb]
Winds: from the SSE (160 degrees) at 5 MPH (4 knots; 2.1 m/s)
Visibility: 9 miles (14 km)
Ceiling: 1300 feet AGL
Clouds: overcast cloud deck at 1300 feet AGL
Weather: -DZ  (light drizzle)

METAR text: KONT 171353Z 26004KT 10SM OVC012 19/17 A2988 RMK AO2 SLP106 T01890167 $
Conditions at: KONT (ONTARIO , CA, US) observed 1353 UTC 17 June 2019
Temperature: 18.9°C (66°F)
Dewpoint: 16.7°C (62°F) [RH = 87%]
Pressure (altimeter): 29.88 inches Hg (1011.9 mb)
[Sea-level pressure: 1010.6 mb]
Winds: from the W (260 degrees) at 5 MPH (4 knots; 2.1 m/s)
Visibility: 10 or more miles (16+ km)
Ceiling: 1200 feet AGL
Clouds: overcast cloud deck at 1200 feet AGL
Weather:
SOME DATA ABOVE MAY BE INACCURATE!!!
"$" is an indication the sensor requires maintenance

METAR text: KONT 171253Z VRB03KT 10SM OVC013 19/17 A2987 RMK AO2 DZB36E53 SLP101 P0000 T01890167 $
Conditions at: KONT (ONTARIO , CA, US) observed 1253 UTC 17 June 2019
Temperature: 18.9°C (66°F)
Dewpoint: 16.7°C (62°F) [RH = 87%]
Pressure (altimeter): 29.87 inches Hg (1011.6 mb)
[Sea-level pressure: 1010.1 mb]
Winds: variable direction winds at 3 MPH (3 knots; 1.5 m/s)
Visibility: 10 or more miles (16+ km)
Ceiling: 1300 feet AGL
Clouds: overcast cloud deck at 1300 feet AGL
Weather:
SOME DATA ABOVE MAY BE INACCURATE!!!
"$" is an indication the sensor requires maintenance

METAR text: KONT 171153Z VRB03KT 10SM FEW009 OVC013 19/17 A2986 RMK AO2 SLP096 T01890167 10200 20183 58005 $
Conditions at: KONT (ONTARIO , CA, US) observed 1153 UTC 17 June 2019
Temperature: 18.9°C (66°F)
Dewpoint: 16.7°C (62°F) [RH = 87%]
Pressure (altimeter): 29.86 inches Hg (1011.3 mb)
[Sea-level pressure: 1009.6 mb]
Winds: variable direction winds at 3 MPH (3 knots; 1.5 m/s)
Visibility: 10 or more miles (16+ km)
Ceiling: 1300 feet AGL
Clouds: few clouds at 900 feet AGL
overcast cloud deck at 1300 feet AGL
Weather:
SOME DATA ABOVE MAY BE INACCURATE!!!
"$" is an indication the sensor requires maintenance

METAR text: KONT 171053Z 24004KT 10SM FEW009 OVC014 18/17 A2986 RMK AO2 SLP096 T01830172 $
Conditions at: KONT (ONTARIO , CA, US) observed 1053 UTC 17 June 2019
Temperature: 18.3°C (65°F)
Dewpoint: 17.2°C (63°F) [RH = 93%]
Pressure (altimeter): 29.86 inches Hg (1011.3 mb)
[Sea-level pressure: 1009.6 mb]
Winds: from the WSW (240 degrees) at 5 MPH (4 knots; 2.1 m/s)
Visibility: 10 or more miles (16+ km)
Ceiling: 1400 feet AGL
Clouds: few clouds at 900 feet AGL
overcast cloud deck at 1400 feet AGL
Weather:
SOME DATA ABOVE MAY BE INACCURATE!!!
"$" is an indication the sensor requires maintenance

METAR text: KONT 171037Z 23005KT 10SM BKN009 OVC015 18/17 A2986 RMK AO2 T01830167 $
Conditions at: KONT (ONTARIO , CA, US) observed 1037 UTC 17 June 2019
Temperature: 18.3°C (65°F)
Dewpoint: 16.7°C (62°F) [RH = 90%]
Pressure (altimeter): 29.86 inches Hg (1011.3 mb)
Winds: from the SW (230 degrees) at 6 MPH (5 knots; 2.6 m/s)
Visibility: 10 or more miles (16+ km)
Ceiling: 900 feet AGL
Clouds: broken clouds at 900 feet AGL
overcast cloud deck at 1500 feet AGL
Weather:
SOME DATA ABOVE MAY BE INACCURATE!!!
"$" is an indication the sensor requires maintenance

METAR text: KONT 170953Z 25006KT 10SM SCT009 OVC016 18/17 A2987 RMK AO2 SLP099 SCT V BKN T01830167 $
Conditions at: KONT (ONTARIO , CA, US) observed 0953 UTC 17 June 2019
Temperature: 18.3°C (65°F)
Dewpoint: 16.7°C (62°F) [RH = 90%]
Pressure (altimeter): 29.87 inches Hg (1011.6 mb)
[Sea-level pressure: 1009.9 mb]
Winds: from the WSW (250 degrees) at 7 MPH (6 knots; 3.1 m/s)
Visibility: 10 or more miles (16+ km)
Ceiling: 1600 feet AGL
Clouds: scattered clouds at 900 feet AGL
overcast cloud deck at 1600 feet AGL
Weather:
SOME DATA ABOVE MAY BE INACCURATE!!!
"$" is an indication the sensor requires maintenance

METAR text: KONT 170919Z 24007KT 10SM FEW009 OVC016 19/17 A2987 RMK AO2 T01890167 $
Conditions at: KONT (ONTARIO , CA, US) observed 0919 UTC 17 June 2019
Temperature: 18.9°C (66°F)
Dewpoint: 16.7°C (62°F) [RH = 87%]
Pressure (altimeter): 29.87 inches Hg (1011.6 mb)
Winds: from the WSW (240 degrees) at 8 MPH (7 knots; 3.6 m/s)
Visibility: 10 or more miles (16+ km)
Ceiling: 1600 feet AGL
Clouds: few clouds at 900 feet AGL
overcast cloud deck at 1600 feet AGL
Weather:
SOME DATA ABOVE MAY BE INACCURATE!!!
"$" is an indication the sensor requires maintenance

METAR text: KONT 170853Z 25008KT 10SM OVC015 19/17 A2987 RMK AO2 SLP100 T01890167 58006 $
Conditions at: KONT (ONTARIO , CA, US) observed 0853 UTC 17 June 2019
Temperature: 18.9°C (66°F)
Dewpoint: 16.7°C (62°F) [RH = 87%]
Pressure (altimeter): 29.87 inches Hg (1011.6 mb)
[Sea-level pressure: 1010.0 mb]
Winds: from the WSW (250 degrees) at 9 MPH (8 knots; 4.1 m/s)
Visibility: 10 or more miles (16+ km)
Ceiling: 1500 feet AGL
Clouds: overcast cloud deck at 1500 feet AGL
Weather:
SOME DATA ABOVE MAY BE INACCURATE!!!
"$" is an indication the sensor requires maintenance

METAR text: KONT 170753Z 25007KT 10SM OVC014 19/17 A2988 RMK AO2 SLP103 T01940167 402940183 $
Conditions at: KONT (ONTARIO , CA, US) observed 0753 UTC 17 June 2019
Temperature: 19.4°C (67°F)
Dewpoint: 16.7°C (62°F) [RH = 84%]
Pressure (altimeter): 29.88 inches Hg (1011.9 mb)
[Sea-level pressure: 1010.3 mb]
Winds: from the WSW (250 degrees) at 8 MPH (7 knots; 3.6 m/s)
Visibility: 10 or more miles (16+ km)
Ceiling: 1400 feet AGL
Clouds: overcast cloud deck at 1400 feet AGL
Weather:
SOME DATA ABOVE MAY BE INACCURATE!!!
"$" is an indication the sensor requires maintenance

METAR text: KONT 170653Z 25007KT 10SM OVC014 19/17 A2988 RMK AO2 SLP107 T01940167
Conditions at: KONT (ONTARIO , CA, US) observed 0653 UTC 17 June 2019
Temperature: 19.4°C (67°F)
Dewpoint: 16.7°C (62°F) [RH = 84%]
Pressure (altimeter): 29.88 inches Hg (1011.9 mb)
[Sea-level pressure: 1010.7 mb]
Winds: from the WSW (250 degrees) at 8 MPH (7 knots; 3.6 m/s)
Visibility: 10 or more miles (16+ km)
Ceiling: 1400 feet AGL
Clouds: overcast cloud deck at 1400 feet AGL
Weather: no significant weather observed at this time

METAR text: KONT 170553Z 24006KT 10SM OVC014 19/17 A2989 RMK AO2 SLP110 T01940167 10278 20194 51013
Conditions at: KONT (ONTARIO , CA, US) observed 0553 UTC 17 June 2019
Temperature: 19.4°C (67°F)
Dewpoint: 16.7°C (62°F) [RH = 84%]
Pressure (altimeter): 29.89 inches Hg (1012.3 mb)
[Sea-level pressure: 1011.0 mb]
Winds: from the WSW (240 degrees) at 7 MPH (6 knots; 3.1 m/s)
Visibility: 10 or more miles (16+ km)
Ceiling: 1400 feet AGL
Clouds: overcast cloud deck at 1400 feet AGL
Weather: no significant weather observed at this time

METAR text: KONT 170453Z 23006KT 10SM OVC014 20/17 A2988 RMK AO2 SLP110 T02000167
Conditions at: KONT (ONTARIO , CA, US) observed 0453 UTC 17 June 2019
Temperature: 20.0°C (68°F)
Dewpoint: 16.7°C (62°F) [RH = 81%]
Pressure (altimeter): 29.88 inches Hg (1011.9 mb)
[Sea-level pressure: 1011.0 mb]
Winds: from the SW (230 degrees) at 7 MPH (6 knots; 3.1 m/s)
Visibility: 10 or more miles (16+ km)
Ceiling: 1400 feet AGL
Clouds: overcast cloud deck at 1400 feet AGL
Weather: no significant weather observed at this time

METAR text: KONT 170407Z 25010KT 10SM BKN015 19/17 A2987 RMK AO2 T01940167
Conditions at: KONT (ONTARIO , CA, US) observed 0407 UTC 17 June 2019
Temperature: 19.4°C (67°F)
Dewpoint: 16.7°C (62°F) [RH = 84%]
Pressure (altimeter): 29.87 inches Hg (1011.6 mb)
Winds: from the WSW (250 degrees) at 12 MPH (10 knots; 5.1 m/s)
Visibility: 10 or more miles (16+ km)
Ceiling: 1500 feet AGL
Clouds: broken clouds at 1500 feet AGL
Weather: no significant weather observed at this time

METAR text: KONT 170353Z 24011KT 10SM SCT014 SCT250 19/17 A2987 RMK AO2 SLP105 T01940167
Conditions at: KONT (ONTARIO , CA, US) observed 0353 UTC 17 June 2019
Temperature: 19.4°C (67°F)
Dewpoint: 16.7°C (62°F) [RH = 84%]
Pressure (altimeter): 29.87 inches Hg (1011.6 mb)
[Sea-level pressure: 1010.5 mb]
Winds: from the WSW (240 degrees) at 13 MPH (11 knots; 5.7 m/s)
Visibility: 10 or more miles (16+ km)
Ceiling: at least 12,000 feet AGL
Clouds: scattered clouds at 1400 feet AGL
scattered clouds at 25000 feet AGL
Weather: no significant weather observed at this time

METAR text: KONT 170253Z 25011KT 10SM FEW030 SCT250 21/17 A2985 RMK AO2 SLP098 T02110172 53009
Conditions at: KONT (ONTARIO , CA, US) observed 0253 UTC 17 June 2019
Temperature: 21.1°C (70°F)
Dewpoint: 17.2°C (63°F) [RH = 78%]
Pressure (altimeter): 29.85 inches Hg (1010.9 mb)
[Sea-level pressure: 1009.8 mb]
Winds: from the WSW (250 degrees) at 13 MPH (11 knots; 5.7 m/s)
Visibility: 10 or more miles (16+ km)
Ceiling: at least 12,000 feet AGL
Clouds: few clouds at 3000 feet AGL
scattered clouds at 25000 feet AGL
Weather: no significant weather observed at this time

METAR text: KONT 170153Z 23015KT 8SM FEW035 SCT250 23/17 A2983 RMK AO2 SLP090 HAZY T02330172
Conditions at: KONT (ONTARIO , CA, US) observed 0153 UTC 17 June 2019
Temperature: 23.3°C (74°F)
Dewpoint: 17.2°C (63°F) [RH = 69%]
Pressure (altimeter): 29.83 inches Hg (1010.2 mb)
[Sea-level pressure: 1009.0 mb]
Winds: from the SW (230 degrees) at 17 MPH (15 knots; 7.7 m/s)
Visibility: 8 miles (13 km)
Ceiling: at least 12,000 feet AGL
Clouds: few clouds at 3500 feet AGL
scattered clouds at 25000 feet AGL
Weather: no significant weather observed at this time

METAR text: KONT 170053Z 24016KT 8SM BKN250 27/16 A2982 RMK AO2 SLP083 HAZY T02670161
Conditions at: KONT (ONTARIO , CA, US) observed 0053 UTC 17 June 2019
Temperature: 26.7°C (80°F)
Dewpoint: 16.1°C (61°F) [RH = 52%]
Pressure (altimeter): 29.82 inches Hg (1009.9 mb)
[Sea-level pressure: 1008.3 mb]
Winds: from the WSW (240 degrees) at 18 MPH (16 knots; 8.2 m/s)
Visibility: 8 miles (13 km)
Ceiling: 25000 feet AGL
Clouds: broken clouds at 25000 feet AGL
Weather: no significant weather observed at this time

METAR text: KONT 162353Z 25015G20KT 8SM BKN250 28/16 A2982 RMK AO2 SLP084 HAZY T02780161 10294 20211 56013
Conditions at: KONT (ONTARIO , CA, US) observed 2353 UTC 16 June 2019
Temperature: 27.8°C (82°F)
Dewpoint: 16.1°C (61°F) [RH = 49%]
Pressure (altimeter): 29.82 inches Hg (1009.9 mb)
[Sea-level pressure: 1008.4 mb]
Winds: from the WSW (250 degrees) at 17 MPH (15 knots; 7.7 m/s)
gusting to 23 MPH (20 knots; 10.3 m/s)
Visibility: 8 miles (13 km)
Ceiling: 25000 feet AGL
Clouds: broken clouds at 25000 feet AGL
Weather: no significant weather observed at this time

METAR text: KONT 162253Z 26012G17KT 230V290 8SM FEW090 BKN250 29/16 A2984 RMK AO2 SLP087 HAZY T02890156
Conditions at: KONT (ONTARIO , CA, US) observed 2253 UTC 16 June 2019
Temperature: 28.9°C (84°F)
Dewpoint: 15.6°C (60°F) [RH = 45%]
Pressure (altimeter): 29.84 inches Hg (1010.6 mb)
[Sea-level pressure: 1008.7 mb]
Winds: from the W (260 degrees) at 14 MPH (12 knots; 6.2 m/s)
gusting to 20 MPH (17 knots; 8.7 m/s)
Visibility: 8 miles (13 km)
Ceiling: 25000 feet AGL
Clouds: few clouds at 9000 feet AGL
broken clouds at 25000 feet AGL
Weather: no significant weather observed at this time

METAR text: KONT 162153Z 27012G17KT 240V300 8SM FEW090 SCT250 29/16 A2985 RMK AO2 SLP091 HAZY T02890156
Conditions at: KONT (ONTARIO , CA, US) observed 2153 UTC 16 June 2019
Temperature: 28.9°C (84°F)
Dewpoint: 15.6°C (60°F) [RH = 45%]
Pressure (altimeter): 29.85 inches Hg (1010.9 mb)
[Sea-level pressure: 1009.1 mb]
Winds: from the W (270 degrees) at 14 MPH (12 knots; 6.2 m/s)
gusting to 20 MPH (17 knots; 8.7 m/s)
Visibility: 8 miles (13 km)
Ceiling: at least 12,000 feet AGL
Clouds: few clouds at 9000 feet AGL
scattered clouds at 25000 feet AGL
Weather: no significant weather observed at this time

METAR text: KONT 162053Z 25008G15KT 230V300 9SM SCT250 28/16 A2986 RMK AO2 SLP097 T02830161 58014
Conditions at: KONT (ONTARIO , CA, US) observed 2053 UTC 16 June 2019
Temperature: 28.3°C (83°F)
Dewpoint: 16.1°C (61°F) [RH = 48%]
Pressure (altimeter): 29.86 inches Hg (1011.3 mb)
[Sea-level pressure: 1009.7 mb]
Winds: from the WSW (250 degrees) at 9 MPH (8 knots; 4.1 m/s)
gusting to 17 MPH (15 knots; 7.7 m/s)
Visibility: 9 miles (14 km)
Ceiling: at least 12,000 feet AGL
Clouds: scattered clouds at 25000 feet AGL
Weather: no significant weather observed at this time

METAR text: KONT 161953Z 22008KT 200V270 7SM FEW017 BKN250 26/16 A2988 RMK AO2 SLP103 T02610156
Conditions at: KONT (ONTARIO , CA, US) observed 1953 UTC 16 June 2019
Temperature: 26.1°C (79°F)
Dewpoint: 15.6°C (60°F) [RH = 52%]
Pressure (altimeter): 29.88 inches Hg (1011.9 mb)
[Sea-level pressure: 1010.3 mb]
Winds: from the SW (220 degrees) at 9 MPH (8 knots; 4.1 m/s)
Visibility: 7 miles (11 km)
Ceiling: 25000 feet AGL
Clouds: few clouds at 1700 feet AGL
broken clouds at 25000 feet AGL
Weather: no significant weather observed at this time

METAR text: KONT 161853Z 20005KT 6SM HZ SCT017 BKN250 23/16 A2990 RMK AO2 SLP113 T02280161
Conditions at: KONT (ONTARIO , CA, US) observed 1853 UTC 16 June 2019
Temperature: 22.8°C (73°F)
Dewpoint: 16.1°C (61°F) [RH = 66%]
Pressure (altimeter): 29.90 inches Hg (1012.6 mb)
[Sea-level pressure: 1011.3 mb]
Winds: from the SSW (200 degrees) at 6 MPH (5 knots; 2.6 m/s)
Visibility: 6 miles (10 km)
Ceiling: 25000 feet AGL
Clouds: scattered clouds at 1700 feet AGL
broken clouds at 25000 feet AGL
Weather: HZ  (haze)

METAR text: KONT 161840Z 17004KT 6SM HZ SCT017 BKN250 22/17 A2990 RMK AO2 T02220167
Conditions at: KONT (ONTARIO , CA, US) observed 1840 UTC 16 June 2019
Temperature: 22.2°C (72°F)
Dewpoint: 16.7°C (62°F) [RH = 71%]
Pressure (altimeter): 29.90 inches Hg (1012.6 mb)
Winds: from the S (170 degrees) at 5 MPH (4 knots; 2.1 m/s)
Visibility: 6 miles (10 km)
Ceiling: 25000 feet AGL
Clouds: scattered clouds at 1700 feet AGL
broken clouds at 25000 feet AGL
Weather: HZ  (haze)

METAR text: KONT 161753Z 22005KT 5SM HZ OVC015 21/17 A2990 RMK AO2 SLP116 T02110167 10211 20183 51002
Conditions at: KONT (ONTARIO , CA, US) observed 1753 UTC 16 June 2019
Temperature: 21.1°C (70°F)
Dewpoint: 16.7°C (62°F) [RH = 76%]
Pressure (altimeter): 29.90 inches Hg (1012.6 mb)
[Sea-level pressure: 1011.6 mb]
Winds: from the SW (220 degrees) at 6 MPH (5 knots; 2.6 m/s)
Visibility: 5 miles ( 8 km)
Ceiling: 1500 feet AGL
Clouds: overcast cloud deck at 1500 feet AGL
Weather: HZ  (haze)

METAR text: KONT 161736Z 00000KT 6SM HZ OVC015 21/17 A2990 RMK AO2 T02060167
Conditions at: KONT (ONTARIO , CA, US) observed 1736 UTC 16 June 2019
Temperature: 20.6°C (69°F)
Dewpoint: 16.7°C (62°F) [RH = 78%]
Pressure (altimeter): 29.90 inches Hg (1012.6 mb)
Winds: calm
Visibility: 6 miles (10 km)
Ceiling: 1500 feet AGL
Clouds: overcast cloud deck at 1500 feet AGL
Weather: HZ  (haze)

METAR text: KONT 161653Z 00000KT 5SM HZ OVC014 19/16 A2990 RMK AO2 SLP115 T01940161
Conditions at: KONT (ONTARIO , CA, US) observed 1653 UTC 16 June 2019
Temperature: 19.4°C (67°F)
Dewpoint: 16.1°C (61°F) [RH = 81%]
Pressure (altimeter): 29.90 inches Hg (1012.6 mb)
[Sea-level pressure: 1011.5 mb]
Winds: calm
Visibility: 5 miles ( 8 km)
Ceiling: 1400 feet AGL
Clouds: overcast cloud deck at 1400 feet AGL
Weather: HZ  (haze)

METAR text: KONT 161553Z 29003KT 5SM HZ OVC011 19/16 A2990 RMK AO2 SLP115 T01940161
Conditions at: KONT (ONTARIO , CA, US) observed 1553 UTC 16 June 2019
Temperature: 19.4°C (67°F)
Dewpoint: 16.1°C (61°F) [RH = 81%]
Pressure (altimeter): 29.90 inches Hg (1012.6 mb)
[Sea-level pressure: 1011.5 mb]
Winds: from the WNW (290 degrees) at 3 MPH (3 knots; 1.5 m/s)
Visibility: 5 miles ( 8 km)
Ceiling: 1100 feet AGL
Clouds: overcast cloud deck at 1100 feet AGL
Weather: HZ  (haze)

Forecast for: KONT (ONTARIO , CA, US)
Text: KONT 172332Z 1800/1906 26011KT P6SM SCT020
Forecast period: 0000 to 0500 UTC 18 June 2019
Forecast type: FROM: standard forecast or significant change
Winds: from the W (260 degrees) at 13 MPH (11 knots; 5.7 m/s)
Visibility: 6 or more miles 10+ km)
Ceiling: at least 12,000 feet AGL
Clouds: scattered clouds at 2000 feet AGL
Weather: no significant weather forecast for this period
Text: FM180500 VRB04KT P6SM OVC017
Forecast period: 0500 to 1100 UTC 18 June 2019
Forecast type: FROM: standard forecast or significant change
Winds: variable direction winds at 5 MPH (4 knots; 2.1 m/s)
Visibility: 6 or more miles 10+ km)
Ceiling: 1700 feet AGL
Clouds: overcast cloud deck at 1700 feet AGL
Weather: no significant weather forecast for this period
Text: FM181100 23004KT 4SM BR OVC011
Forecast period: 1100 to 2100 UTC 18 June 2019
Forecast type: FROM: standard forecast or significant change
Winds: from the SW (230 degrees) at 5 MPH (4 knots; 2.1 m/s)
Visibility: 4 miles (6 km)
Ceiling: 1100 feet AGL
Clouds: overcast cloud deck at 1100 feet AGL
Weather: BR  (mist)
Text: FM182100 26010KT P6SM SCT022
Forecast period: 2100 UTC 18 June 2019 to 0500 UTC 19 June 2019
Forecast type: FROM: standard forecast or significant change
Winds: from the W (260 degrees) at 12 MPH (10 knots; 5.1 m/s)
Visibility: 6 or more miles 10+ km)
Ceiling: at least 12,000 feet AGL
Clouds: scattered clouds at 2200 feet AGL
Weather: no significant weather forecast for this period
Text: FM190500 VRB05KT P6SM BKN018
Forecast period: 0500 to 0600 UTC 19 June 2019
Forecast type: FROM: standard forecast or significant change
Winds: variable direction winds at 6 MPH (5 knots; 2.6 m/s)
Visibility: 6 or more miles 10+ km)
Ceiling: 1800 feet AGL
Clouds: broken clouds at 1800 feet AGL
Weather: no significant weather forecast for this period